To NAV CANADA Home Page Login to a new session Search on AWWS site Feedback and Comments Disclaimer Vers la page française équivalente Tips FAQ What's new on the site To the Forecasts and Observations / NOTAM section To "File a Flight Plan" website Publications and other links Update of the User's profile FIC Telephone Numbers My Weather Data Folder Route Weather Data Regional Weather Data Local Weather Data To the Forecasts and Observations / NOTAM section
Request Generated 07/06/2015 at 02:48:44 UTC . Weather information available at that time is displayed.

METAR/TAF

COLD LAKE/GROUP CAPTAIN R.W. MCNAIR/AB    

METAR CYOD 060200Z 15003KT 15SM FEW050 BKN090 19/04 A3013 RMK CU1FU3 SLP211=
METAR CYOD 060100Z 10002KT 15SM FEW050 SCT090 BKN250 20/03 A3013 RMK CU1FU2CI1 SLP211=
METAR CYOD 060000Z 04006KT 15SM FEW050 BKN250 20/03 A3012 RMK CU1CI1 SLP210=

TAF CYOD 052330Z 0600/0624 01005KT P6SM FEW050 TEMPO 0600/0615 3SM FU
BECMG 0602/0604 VRB03KT
FM061500 24008KT P6SM FEW060
RMK NXT FCST BY 060600Z=
Your time UTC time
Weather data provided by Environment Canada and NAV CANADA